sensor_id;sensor_type;location;lat;lon;timestamp;temperature;humidity
8792;DHT22;4432;50.890;4.744;2022-08-01T00:00:12;21.10;99.90
8792;DHT22;4432;50.890;4.744;2022-08-01T00:02:38;21.10;99.90
8792;DHT22;4432;50.890;4.744;2022-08-01T00:05:05;21.10;99.90
8792;DHT22;4432;50.890;4.744;2022-08-01T00:07:32;21.10;99.90
8792;DHT22;4432;50.890;4.744;2022-08-01T00:09:58;21.10;99.90
8792;DHT22;4432;50.890;4.744;2022-08-01T00:12:23;21.10;99.90
8792;DHT22;4432;50.890;4.744;2022-08-01T00:14:49;21.00;99.90
8792;DHT22;4432;50.890;4.744;2022-08-01T00:17:15;21.10;99.90
8792;DHT22;4432;50.890;4.744;2022-08-01T00:19:41;21.10;99.90
8792;DHT22;4432;50.890;4.744;2022-08-01T00:22:07;21.10;99.90
8792;DHT22;4432;50.890;4.744;2022-08-01T00:24:32;21.10;99.90
8792;DHT22;4432;50.890;4.744;2022-08-01T00:26:58;21.10;99.90
8792;DHT22;4432;50.890;4.744;2022-08-01T00:29:24;21.10;99.90
8792;DHT22;4432;50.890;4.744;2022-08-01T00:31:49;21.00;99.90
8792;DHT22;4432;50.890;4.744;2022-08-01T00:34:15;21.00;99.90
8792;DHT22;4432;50.890;4.744;2022-08-01T00:36:41;21.00;99.90
8792;DHT22;4432;50.890;4.744;2022-08-01T00:39:07;21.00;99.90
8792;DHT22;4432;50.890;4.744;2022-08-01T00:41:33;20.90;99.90
8792;DHT22;4432;50.890;4.744;2022-08-01T00:44:02;20.90;99.90
8792;DHT22;4432;50.890;4.744;2022-08-01T00:46:28;20.80;99.90
8792;DHT22;4432;50.890;4.744;2022-08-01T00:48:54;20.80;99.90
8792;DHT22;4432;50.890;4.744;2022-08-01T00:51:21;20.80;99.90
8792;DHT22;4432;50.890;4.744;2022-08-01T00:53:49;20.80;99.90
8792;DHT22;4432;50.890;4.744;2022-08-01T00:56:15;20.80;99.90
8792;DHT22;4432;50.890;4.744;2022-08-01T00:58:41;20.80;99.90
8792;DHT22;4432;50.890;4.744;2022-08-01T01:01:08;20.80;99.90
8792;DHT22;4432;50.890;4.744;2022-08-01T01:03:33;20.80;99.90
8792;DHT22;4432;50.890;4.744;2022-08-01T01:17:24;20.50;99.90
8792;DHT22;4432;50.890;4.744;2022-08-01T01:19:55;20.50;99.90
8792;DHT22;4432;50.890;4.744;2022-08-01T01:23:21;20.50;99.90
8792;DHT22;4432;50.890;4.744;2022-08-01T01:28:18;20.40;99.90
8792;DHT22;4432;50.890;4.744;2022-08-01T01:30:50;20.50;99.90
8792;DHT22;4432;50.890;4.744;2022-08-01T01:33:19;20.40;99.90
8792;DHT22;4432;50.890;4.744;2022-08-01T01:35:49;20.40;99.90
8792;DHT22;4432;50.890;4.744;2022-08-01T01:38:21;20.40;99.90
8792;DHT22;4432;50.890;4.744;2022-08-01T01:40:49;20.40;99.90
8792;DHT22;4432;50.890;4.744;2022-08-01T01:43:16;20.40;99.90
8792;DHT22;4432;50.890;4.744;2022-08-01T01:45:45;20.40;99.90
8792;DHT22;4432;50.890;4.744;2022-08-01T01:48:14;20.50;99.90
8792;DHT22;4432;50.890;4.744;2022-08-01T01:50:43;20.50;99.90
8792;DHT22;4432;50.890;4.744;2022-08-01T01:53:12;20.50;99.90
8792;DHT22;4432;50.890;4.744;2022-08-01T01:55:40;20.50;99.90
8792;DHT22;4432;50.890;4.744;2022-08-01T01:58:07;20.50;99.90
8792;DHT22;4432;50.890;4.744;2022-08-01T02:00:35;20.50;99.90
8792;DHT22;4432;50.890;4.744;2022-08-01T02:03:05;20.40;99.90
8792;DHT22;4432;50.890;4.744;2022-08-01T02:05:33;20.50;99.90
8792;DHT22;4432;50.890;4.744;2022-08-01T02:08:01;20.50;99.90
8792;DHT22;4432;50.890;4.744;2022-08-01T02:10:29;20.50;99.90
8792;DHT22;4432;50.890;4.744;2022-08-01T02:12:57;20.40;99.90
8792;DHT22;4432;50.890;4.744;2022-08-01T02:15:26;20.40;99.90
8792;DHT22;4432;50.890;4.744;2022-08-01T02:17:53;20.50;99.90
8792;DHT22;4432;50.890;4.744;2022-08-01T02:20:20;20.50;99.90
8792;DHT22;4432;50.890;4.744;2022-08-01T02:22:51;20.50;99.90
8792;DHT22;4432;50.890;4.744;2022-08-01T02:25:25;20.50;99.90
8792;DHT22;4432;50.890;4.744;2022-08-01T02:28:05;20.50;99.90
8792;DHT22;4432;50.890;4.744;2022-08-01T02:30:38;20.50;99.90
8792;DHT22;4432;50.890;4.744;2022-08-01T02:33:12;20.50;99.90
8792;DHT22;4432;50.890;4.744;2022-08-01T02:35:42;20.50;99.90
8792;DHT22;4432;50.890;4.744;2022-08-01T02:38:10;20.50;99.90
8792;DHT22;4432;50.890;4.744;2022-08-01T02:40:40;20.40;99.90
8792;DHT22;4432;50.890;4.744;2022-08-01T02:43:09;20.40;99.90
8792;DHT22;4432;50.890;4.744;2022-08-01T02:45:41;20.40;99.90
8792;DHT22;4432;50.890;4.744;2022-08-01T02:48:13;20.40;99.90
8792;DHT22;4432;50.890;4.744;2022-08-01T02:50:42;20.40;99.90
8792;DHT22;4432;50.890;4.744;2022-08-01T02:53:09;20.30;99.90
8792;DHT22;4432;50.890;4.744;2022-08-01T02:55:38;20.40;99.90
8792;DHT22;4432;50.890;4.744;2022-08-01T02:58:07;20.40;99.90
8792;DHT22;4432;50.890;4.744;2022-08-01T03:00:34;20.40;99.90
8792;DHT22;4432;50.890;4.744;2022-08-01T03:03:01;20.40;99.90
8792;DHT22;4432;50.890;4.744;2022-08-01T03:05:29;20.40;99.90
8792;DHT22;4432;50.890;4.744;2022-08-01T03:07:56;20.40;99.90
8792;DHT22;4432;50.890;4.744;2022-08-01T03:10:25;20.40;99.90
8792;DHT22;4432;50.890;4.744;2022-08-01T03:12:52;20.30;99.90
8792;DHT22;4432;50.890;4.744;2022-08-01T03:15:18;20.40;99.90
8792;DHT22;4432;50.890;4.744;2022-08-01T03:17:46;20.30;99.90
8792;DHT22;4432;50.890;4.744;2022-08-01T03:20:15;20.30;99.90
8792;DHT22;4432;50.890;4.744;2022-08-01T03:22:43;20.30;99.90
8792;DHT22;4432;50.890;4.744;2022-08-01T03:25:11;20.20;99.90
8792;DHT22;4432;50.890;4.744;2022-08-01T03:27:40;20.20;99.90
8792;DHT22;4432;50.890;4.744;2022-08-01T03:30:07;20.20;99.90
8792;DHT22;4432;50.890;4.744;2022-08-01T03:32:33;20.20;99.90
8792;DHT22;4432;50.890;4.744;2022-08-01T03:34:59;20.20;99.90
8792;DHT22;4432;50.890;4.744;2022-08-01T03:37:38;20.20;99.90
8792;DHT22;4432;50.890;4.744;2022-08-01T03:40:11;20.20;99.90
8792;DHT22;4432;50.890;4.744;2022-08-01T03:42:45;20.10;99.90
8792;DHT22;4432;50.890;4.744;2022-08-01T03:45:21;20.10;99.90
8792;DHT22;4432;50.890;4.744;2022-08-01T03:47:49;20.00;99.90
8792;DHT22;4432;50.890;4.744;2022-08-01T03:50:21;19.90;99.90
8792;DHT22;4432;50.890;4.744;2022-08-01T03:52:50;19.90;99.90
8792;DHT22;4432;50.890;4.744;2022-08-01T03:55:17;19.80;99.90
8792;DHT22;4432;50.890;4.744;2022-08-01T03:57:45;19.70;99.90
8792;DHT22;4432;50.890;4.744;2022-08-01T04:00:13;19.70;99.90
8792;DHT22;4432;50.890;4.744;2022-08-01T04:02:47;19.70;99.90
8792;DHT22;4432;50.890;4.744;2022-08-01T04:05:14;19.60;99.90
8792;DHT22;4432;50.890;4.744;2022-08-01T04:07:40;19.60;99.90
8792;DHT22;4432;50.890;4.744;2022-08-01T04:10:11;19.60;99.90
8792;DHT22;4432;50.890;4.744;2022-08-01T04:12:36;19.50;99.90
8792;DHT22;4432;50.890;4.744;2022-08-01T04:15:03;19.50;99.90
8792;DHT22;4432;50.890;4.744;2022-08-01T04:17:29;19.50;99.90
8792;DHT22;4432;50.890;4.744;2022-08-01T04:19:55;19.50;99.90
8792;DHT22;4432;50.890;4.744;2022-08-01T04:22:20;19.50;99.90
8792;DHT22;4432;50.890;4.744;2022-08-01T04:24:48;19.40;99.90
8792;DHT22;4432;50.890;4.744;2022-08-01T04:27:18;19.30;99.90
8792;DHT22;4432;50.890;4.744;2022-08-01T04:29:46;19.30;99.90
8792;DHT22;4432;50.890;4.744;2022-08-01T04:32:13;19.20;99.90
8792;DHT22;4432;50.890;4.744;2022-08-01T04:34:41;19.10;99.90
8792;DHT22;4432;50.890;4.744;2022-08-01T04:37:12;19.10;99.90
8792;DHT22;4432;50.890;4.744;2022-08-01T04:39:39;19.10;99.90
8792;DHT22;4432;50.890;4.744;2022-08-01T04:42:07;19.10;99.90
8792;DHT22;4432;50.890;4.744;2022-08-01T04:44:33;19.10;99.90
8792;DHT22;4432;50.890;4.744;2022-08-01T04:47:03;19.10;99.90
8792;DHT22;4432;50.890;4.744;2022-08-01T04:49:34;19.00;99.90
8792;DHT22;4432;50.890;4.744;2022-08-01T04:52:00;19.10;99.90
8792;DHT22;4432;50.890;4.744;2022-08-01T04:54:27;19.10;99.90
8792;DHT22;4432;50.890;4.744;2022-08-01T04:56:54;19.20;99.90
8792;DHT22;4432;50.890;4.744;2022-08-01T04:59:29;19.20;99.90
8792;DHT22;4432;50.890;4.744;2022-08-01T05:02:09;19.20;99.90
8792;DHT22;4432;50.890;4.744;2022-08-01T05:04:36;19.20;99.90
8792;DHT22;4432;50.890;4.744;2022-08-01T05:07:02;19.20;99.90
8792;DHT22;4432;50.890;4.744;2022-08-01T05:09:28;19.20;99.90
8792;DHT22;4432;50.890;4.744;2022-08-01T05:11:54;19.30;99.90
8792;DHT22;4432;50.890;4.744;2022-08-01T05:14:20;19.20;99.90
8792;DHT22;4432;50.890;4.744;2022-08-01T05:16:46;19.30;99.90
8792;DHT22;4432;50.890;4.744;2022-08-01T05:19:12;19.30;99.90
8792;DHT22;4432;50.890;4.744;2022-08-01T05:21:38;19.30;99.90
8792;DHT22;4432;50.890;4.744;2022-08-01T05:24:04;19.30;99.90
8792;DHT22;4432;50.890;4.744;2022-08-01T05:26:30;19.30;99.90
8792;DHT22;4432;50.890;4.744;2022-08-01T05:28:56;19.40;99.90
8792;DHT22;4432;50.890;4.744;2022-08-01T05:31:22;19.50;99.90
8792;DHT22;4432;50.890;4.744;2022-08-01T05:33:48;19.50;99.90
8792;DHT22;4432;50.890;4.744;2022-08-01T05:36:13;19.70;99.90
8792;DHT22;4432;50.890;4.744;2022-08-01T05:38:39;19.70;99.90
8792;DHT22;4432;50.890;4.744;2022-08-01T05:41:05;19.70;99.90
8792;DHT22;4432;50.890;4.744;2022-08-01T05:43:31;19.80;99.90
8792;DHT22;4432;50.890;4.744;2022-08-01T05:45:57;19.80;99.90
8792;DHT22;4432;50.890;4.744;2022-08-01T05:48:24;19.90;99.90
8792;DHT22;4432;50.890;4.744;2022-08-01T05:50:50;19.90;99.90
8792;DHT22;4432;50.890;4.744;2022-08-01T05:53:16;20.00;99.90
8792;DHT22;4432;50.890;4.744;2022-08-01T05:55:42;20.00;99.90
8792;DHT22;4432;50.890;4.744;2022-08-01T05:58:08;20.10;99.90
8792;DHT22;4432;50.890;4.744;2022-08-01T06:00:33;20.20;99.90
8792;DHT22;4432;50.890;4.744;2022-08-01T06:02:59;20.20;99.90
8792;DHT22;4432;50.890;4.744;2022-08-01T06:05:25;20.30;99.90
8792;DHT22;4432;50.890;4.744;2022-08-01T06:07:51;20.30;99.90
8792;DHT22;4432;50.890;4.744;2022-08-01T06:10:16;20.30;99.90
8792;DHT22;4432;50.890;4.744;2022-08-01T06:12:42;20.30;99.90
8792;DHT22;4432;50.890;4.744;2022-08-01T06:15:08;20.40;99.90
8792;DHT22;4432;50.890;4.744;2022-08-01T06:17:34;20.40;99.90
8792;DHT22;4432;50.890;4.744;2022-08-01T06:20:00;20.40;99.90
8792;DHT22;4432;50.890;4.744;2022-08-01T06:22:26;20.40;99.90
8792;DHT22;4432;50.890;4.744;2022-08-01T06:24:51;20.40;99.90
8792;DHT22;4432;50.890;4.744;2022-08-01T06:27:18;20.50;99.90
8792;DHT22;4432;50.890;4.744;2022-08-01T06:29:43;20.70;99.90
8792;DHT22;4432;50.890;4.744;2022-08-01T06:32:09;20.80;99.90
8792;DHT22;4432;50.890;4.744;2022-08-01T06:34:35;21.00;99.90
8792;DHT22;4432;50.890;4.744;2022-08-01T06:37:01;21.10;99.90
8792;DHT22;4432;50.890;4.744;2022-08-01T06:39:27;21.10;99.90
8792;DHT22;4432;50.890;4.744;2022-08-01T06:41:53;21.20;99.90
8792;DHT22;4432;50.890;4.744;2022-08-01T06:44:18;21.30;99.90
8792;DHT22;4432;50.890;4.744;2022-08-01T06:46:44;21.40;99.90
8792;DHT22;4432;50.890;4.744;2022-08-01T06:49:10;21.70;99.90
8792;DHT22;4432;50.890;4.744;2022-08-01T06:51:36;22.00;99.90
8792;DHT22;4432;50.890;4.744;2022-08-01T06:54:01;22.20;99.90
8792;DHT22;4432;50.890;4.744;2022-08-01T06:56:27;22.10;99.90
8792;DHT22;4432;50.890;4.744;2022-08-01T06:58:53;22.10;99.90
8792;DHT22;4432;50.890;4.744;2022-08-01T07:01:29;22.30;99.90
8792;DHT22;4432;50.890;4.744;2022-08-01T07:03:54;22.30;99.90
8792;DHT22;4432;50.890;4.744;2022-08-01T07:06:22;22.30;99.90
8792;DHT22;4432;50.890;4.744;2022-08-01T07:08:47;22.20;99.90
8792;DHT22;4432;50.890;4.744;2022-08-01T07:11:13;22.10;99.90
8792;DHT22;4432;50.890;4.744;2022-08-01T07:13:39;22.10;99.90
8792;DHT22;4432;50.890;4.744;2022-08-01T07:16:05;21.90;99.90
8792;DHT22;4432;50.890;4.744;2022-08-01T07:18:30;21.80;99.90
8792;DHT22;4432;50.890;4.744;2022-08-01T07:20:56;21.70;99.90
8792;DHT22;4432;50.890;4.744;2022-08-01T07:23:22;21.60;99.90
8792;DHT22;4432;50.890;4.744;2022-08-01T07:25:47;21.60;99.90
8792;DHT22;4432;50.890;4.744;2022-08-01T07:28:15;21.70;99.90
8792;DHT22;4432;50.890;4.744;2022-08-01T07:30:41;21.80;99.90
8792;DHT22;4432;50.890;4.744;2022-08-01T07:33:07;21.70;99.90
8792;DHT22;4432;50.890;4.744;2022-08-01T07:35:34;21.80;99.90
8792;DHT22;4432;50.890;4.744;2022-08-01T07:37:59;22.00;99.90
8792;DHT22;4432;50.890;4.744;2022-08-01T07:40:25;21.90;99.90
8792;DHT22;4432;50.890;4.744;2022-08-01T07:42:51;21.90;99.90
8792;DHT22;4432;50.890;4.744;2022-08-01T07:45:17;22.00;99.90
8792;DHT22;4432;50.890;4.744;2022-08-01T07:47:42;22.10;99.90
8792;DHT22;4432;50.890;4.744;2022-08-01T07:50:09;22.10;99.90
8792;DHT22;4432;50.890;4.744;2022-08-01T07:52:34;22.00;99.90
8792;DHT22;4432;50.890;4.744;2022-08-01T07:55:00;22.00;99.90
8792;DHT22;4432;50.890;4.744;2022-08-01T07:57:26;22.00;99.90
8792;DHT22;4432;50.890;4.744;2022-08-01T07:59:51;21.80;99.90
8792;DHT22;4432;50.890;4.744;2022-08-01T08:02:17;21.80;99.90
8792;DHT22;4432;50.890;4.744;2022-08-01T08:04:43;21.80;99.90
8792;DHT22;4432;50.890;4.744;2022-08-01T08:07:09;21.90;99.90
8792;DHT22;4432;50.890;4.744;2022-08-01T08:09:34;22.00;99.90
8792;DHT22;4432;50.890;4.744;2022-08-01T08:12:00;22.30;99.90
8792;DHT22;4432;50.890;4.744;2022-08-01T08:14:26;22.60;99.90
8792;DHT22;4432;50.890;4.744;2022-08-01T08:16:51;22.80;99.90
8792;DHT22;4432;50.890;4.744;2022-08-01T08:19:17;22.90;99.90
8792;DHT22;4432;50.890;4.744;2022-08-01T08:21:43;23.00;99.90
8792;DHT22;4432;50.890;4.744;2022-08-01T08:24:10;23.10;99.90
8792;DHT22;4432;50.890;4.744;2022-08-01T08:26:48;23.00;99.90
8792;DHT22;4432;50.890;4.744;2022-08-01T08:29:15;23.10;99.90
8792;DHT22;4432;50.890;4.744;2022-08-01T08:31:42;23.30;99.90
8792;DHT22;4432;50.890;4.744;2022-08-01T08:34:07;23.50;99.90
8792;DHT22;4432;50.890;4.744;2022-08-01T08:36:33;23.70;99.90
8792;DHT22;4432;50.890;4.744;2022-08-01T08:38:59;23.80;99.90
8792;DHT22;4432;50.890;4.744;2022-08-01T08:41:32;23.80;99.90
8792;DHT22;4432;50.890;4.744;2022-08-01T08:44:03;24.00;99.90
8792;DHT22;4432;50.890;4.744;2022-08-01T08:46:31;24.20;99.90
8792;DHT22;4432;50.890;4.744;2022-08-01T08:49:02;24.30;99.90
8792;DHT22;4432;50.890;4.744;2022-08-01T08:51:30;24.30;99.90
8792;DHT22;4432;50.890;4.744;2022-08-01T08:53:58;24.40;99.90
8792;DHT22;4432;50.890;4.744;2022-08-01T08:56:25;24.50;99.90
8792;DHT22;4432;50.890;4.744;2022-08-01T08:58:52;24.70;99.90
8792;DHT22;4432;50.890;4.744;2022-08-01T09:01:18;24.40;99.90
8792;DHT22;4432;50.890;4.744;2022-08-01T09:03:44;24.20;99.90
8792;DHT22;4432;50.890;4.744;2022-08-01T09:06:10;23.90;99.90
8792;DHT22;4432;50.890;4.744;2022-08-01T09:08:37;23.70;99.90
8792;DHT22;4432;50.890;4.744;2022-08-01T09:11:03;23.60;99.90
8792;DHT22;4432;50.890;4.744;2022-08-01T09:13:29;23.50;99.90
8792;DHT22;4432;50.890;4.744;2022-08-01T09:15:55;23.80;99.90
8792;DHT22;4432;50.890;4.744;2022-08-01T09:18:40;24.00;99.90
8792;DHT22;4432;50.890;4.744;2022-08-01T09:23:41;24.70;99.90
8792;DHT22;4432;50.890;4.744;2022-08-01T09:26:19;25.10;99.90
8792;DHT22;4432;50.890;4.744;2022-08-01T09:28:47;25.20;99.90
8792;DHT22;4432;50.890;4.744;2022-08-01T09:31:18;25.40;99.90
8792;DHT22;4432;50.890;4.744;2022-08-01T09:33:52;25.70;99.90
8792;DHT22;4432;50.890;4.744;2022-08-01T09:36:22;25.60;99.90
8792;DHT22;4432;50.890;4.744;2022-08-01T09:38:50;25.40;99.90
8792;DHT22;4432;50.890;4.744;2022-08-01T09:41:17;25.10;99.90
8792;DHT22;4432;50.890;4.744;2022-08-01T09:43:50;25.00;99.90
8792;DHT22;4432;50.890;4.744;2022-08-01T09:46:16;25.30;99.90
8792;DHT22;4432;50.890;4.744;2022-08-01T09:48:59;25.80;99.90
8792;DHT22;4432;50.890;4.744;2022-08-01T09:51:36;26.10;99.90
8792;DHT22;4432;50.890;4.744;2022-08-01T09:54:04;26.00;99.90
8792;DHT22;4432;50.890;4.744;2022-08-01T09:56:41;26.40;99.90
8792;DHT22;4432;50.890;4.744;2022-08-01T09:59:11;26.70;99.90
8792;DHT22;4432;50.890;4.744;2022-08-01T10:01:45;26.20;99.90
8792;DHT22;4432;50.890;4.744;2022-08-01T10:04:13;26.30;99.90
8792;DHT22;4432;50.890;4.744;2022-08-01T10:06:41;26.60;99.90
8792;DHT22;4432;50.890;4.744;2022-08-01T10:09:12;26.40;99.90
8792;DHT22;4432;50.890;4.744;2022-08-01T10:11:39;26.50;99.90
8792;DHT22;4432;50.890;4.744;2022-08-01T10:14:06;26.60;99.90
8792;DHT22;4432;50.890;4.744;2022-08-01T10:16:34;26.80;99.90
8792;DHT22;4432;50.890;4.744;2022-08-01T10:19:02;27.10;99.90
8792;DHT22;4432;50.890;4.744;2022-08-01T10:21:32;27.10;99.90
8792;DHT22;4432;50.890;4.744;2022-08-01T10:23:58;27.30;99.90
8792;DHT22;4432;50.890;4.744;2022-08-01T10:26:26;27.30;99.90
8792;DHT22;4432;50.890;4.744;2022-08-01T10:28:54;27.20;99.90
8792;DHT22;4432;50.890;4.744;2022-08-01T10:31:20;27.30;99.90
8792;DHT22;4432;50.890;4.744;2022-08-01T10:33:45;26.90;99.90
8792;DHT22;4432;50.890;4.744;2022-08-01T10:36:11;27.40;99.90
8792;DHT22;4432;50.890;4.744;2022-08-01T10:38:37;27.50;99.90
8792;DHT22;4432;50.890;4.744;2022-08-01T10:41:04;27.70;99.90
8792;DHT22;4432;50.890;4.744;2022-08-01T10:43:30;27.60;99.90
8792;DHT22;4432;50.890;4.744;2022-08-01T10:45:56;27.40;99.90
8792;DHT22;4432;50.890;4.744;2022-08-01T10:51:15;26.90;99.90
8792;DHT22;4432;50.890;4.744;2022-08-01T10:53:51;27.30;99.90
8792;DHT22;4432;50.890;4.744;2022-08-01T10:56:17;27.50;99.90
8792;DHT22;4432;50.890;4.744;2022-08-01T10:58:44;27.70;99.90
8792;DHT22;4432;50.890;4.744;2022-08-01T11:12:12;27.20;99.90
8792;DHT22;4432;50.890;4.744;2022-08-01T11:17:32;27.10;99.90
8792;DHT22;4432;50.890;4.744;2022-08-01T11:20:06;27.30;99.90
8792;DHT22;4432;50.890;4.744;2022-08-01T11:22:35;27.20;99.90
8792;DHT22;4432;50.890;4.744;2022-08-01T11:25:18;27.30;99.90
8792;DHT22;4432;50.890;4.744;2022-08-01T11:27:43;27.40;99.90
8792;DHT22;4432;50.890;4.744;2022-08-01T11:32:54;27.10;99.40
8792;DHT22;4432;50.890;4.744;2022-08-01T11:35:24;27.10;98.80
8792;DHT22;4432;50.890;4.744;2022-08-01T11:37:53;27.10;99.30
8792;DHT22;4432;50.890;4.744;2022-08-01T11:40:28;27.50;99.10
8792;DHT22;4432;50.890;4.744;2022-08-01T11:45:49;27.70;99.30
8792;DHT22;4432;50.890;4.744;2022-08-01T11:48:20;27.90;98.80
8792;DHT22;4432;50.890;4.744;2022-08-01T11:50:46;28.20;96.80
8792;DHT22;4432;50.890;4.744;2022-08-01T11:53:12;28.30;96.80
8792;DHT22;4432;50.890;4.744;2022-08-01T11:55:54;28.40;96.60
8792;DHT22;4432;50.890;4.744;2022-08-01T11:58:25;28.70;94.50
8792;DHT22;4432;50.890;4.744;2022-08-01T12:00:55;28.60;93.70
8792;DHT22;4432;50.890;4.744;2022-08-01T12:03:31;28.90;94.40
8792;DHT22;4432;50.890;4.744;2022-08-01T12:05:58;29.30;92.50
8792;DHT22;4432;50.890;4.744;2022-08-01T12:08:31;29.20;91.00
8792;DHT22;4432;50.890;4.744;2022-08-01T12:11:04;29.20;90.50
8792;DHT22;4432;50.890;4.744;2022-08-01T12:13:42;29.20;89.40
8792;DHT22;4432;50.890;4.744;2022-08-01T12:16:10;28.80;88.60
8792;DHT22;4432;50.890;4.744;2022-08-01T12:18:43;29.20;90.40
8792;DHT22;4432;50.890;4.744;2022-08-01T12:21:08;29.30;88.50
8792;DHT22;4432;50.890;4.744;2022-08-01T12:23:34;28.90;88.10
8792;DHT22;4432;50.890;4.744;2022-08-01T12:26:00;28.80;89.70
8792;DHT22;4432;50.890;4.744;2022-08-01T12:28:27;28.80;86.00
8792;DHT22;4432;50.890;4.744;2022-08-01T12:30:53;28.60;80.80
8792;DHT22;4432;50.890;4.744;2022-08-01T12:33:20;28.40;84.50
8792;DHT22;4432;50.890;4.744;2022-08-01T12:35:46;28.80;83.40
8792;DHT22;4432;50.890;4.744;2022-08-01T12:38:21;28.60;83.10
8792;DHT22;4432;50.890;4.744;2022-08-01T12:40:48;28.80;81.10
8792;DHT22;4432;50.890;4.744;2022-08-01T12:43:18;28.40;82.30
8792;DHT22;4432;50.890;4.744;2022-08-01T12:45:46;28.20;86.40
8792;DHT22;4432;50.890;4.744;2022-08-01T12:48:15;28.10;83.30
8792;DHT22;4432;50.890;4.744;2022-08-01T12:50:45;28.00;79.90
8792;DHT22;4432;50.890;4.744;2022-08-01T12:53:12;28.00;74.80
8792;DHT22;4432;50.890;4.744;2022-08-01T12:55:54;28.00;75.50
8792;DHT22;4432;50.890;4.744;2022-08-01T12:58:20;28.00;76.90
8792;DHT22;4432;50.890;4.744;2022-08-01T13:00:49;27.80;77.60
8792;DHT22;4432;50.890;4.744;2022-08-01T13:03:18;27.70;82.10
8792;DHT22;4432;50.890;4.744;2022-08-01T13:05:49;27.60;77.00
8792;DHT22;4432;50.890;4.744;2022-08-01T13:08:17;27.70;79.00
8792;DHT22;4432;50.890;4.744;2022-08-01T13:10:43;27.80;76.50
8792;DHT22;4432;50.890;4.744;2022-08-01T13:13:10;28.00;76.80
8792;DHT22;4432;50.890;4.744;2022-08-01T13:15:40;28.40;74.40
8792;DHT22;4432;50.890;4.744;2022-08-01T13:18:29;28.50;72.10
8792;DHT22;4432;50.890;4.744;2022-08-01T13:21:15;28.50;68.50
8792;DHT22;4432;50.890;4.744;2022-08-01T13:24:03;28.30;68.00
8792;DHT22;4432;50.890;4.744;2022-08-01T13:29:13;27.60;66.50
8792;DHT22;4432;50.890;4.744;2022-08-01T13:31:40;27.50;62.90
8792;DHT22;4432;50.890;4.744;2022-08-01T13:34:06;27.70;60.80
8792;DHT22;4432;50.890;4.744;2022-08-01T13:36:32;27.70;62.50
8792;DHT22;4432;50.890;4.744;2022-08-01T13:38:59;27.80;60.90
8792;DHT22;4432;50.890;4.744;2022-08-01T13:41:43;27.70;59.40
8792;DHT22;4432;50.890;4.744;2022-08-01T13:44:10;27.60;60.40
8792;DHT22;4432;50.890;4.744;2022-08-01T13:46:40;27.80;61.20
8792;DHT22;4432;50.890;4.744;2022-08-01T13:49:07;28.20;60.10
8792;DHT22;4432;50.890;4.744;2022-08-01T13:51:35;28.40;60.60
8792;DHT22;4432;50.890;4.744;2022-08-01T13:54:01;28.50;59.10
8792;DHT22;4432;50.890;4.744;2022-08-01T13:56:27;28.30;58.40
8792;DHT22;4432;50.890;4.744;2022-08-01T13:58:53;27.90;60.20
8792;DHT22;4432;50.890;4.744;2022-08-01T14:01:19;27.40;59.40
8792;DHT22;4432;50.890;4.744;2022-08-01T14:03:46;27.30;59.50
8792;DHT22;4432;50.890;4.744;2022-08-01T14:06:13;27.10;61.90
8792;DHT22;4432;50.890;4.744;2022-08-01T14:08:44;26.90;59.60
8792;DHT22;4432;50.890;4.744;2022-08-01T14:11:10;26.90;56.40
8792;DHT22;4432;50.890;4.744;2022-08-01T14:13:36;27.10;57.10
8792;DHT22;4432;50.890;4.744;2022-08-01T14:16:06;27.20;55.60
8792;DHT22;4432;50.890;4.744;2022-08-01T14:18:32;27.40;53.70
8792;DHT22;4432;50.890;4.744;2022-08-01T14:20:58;27.50;54.30
8792;DHT22;4432;50.890;4.744;2022-08-01T14:23:24;27.20;55.00
8792;DHT22;4432;50.890;4.744;2022-08-01T14:25:49;27.00;56.20
8792;DHT22;4432;50.890;4.744;2022-08-01T14:28:15;26.80;56.70
8792;DHT22;4432;50.890;4.744;2022-08-01T14:30:41;27.00;57.10
8792;DHT22;4432;50.890;4.744;2022-08-01T14:33:08;27.10;55.30
8792;DHT22;4432;50.890;4.744;2022-08-01T14:35:34;27.20;56.30
8792;DHT22;4432;50.890;4.744;2022-08-01T14:38:00;27.10;53.10
8792;DHT22;4432;50.890;4.744;2022-08-01T14:40:26;27.10;55.40
8792;DHT22;4432;50.890;4.744;2022-08-01T14:42:52;27.10;55.10
8792;DHT22;4432;50.890;4.744;2022-08-01T14:45:17;27.00;54.20
8792;DHT22;4432;50.890;4.744;2022-08-01T14:47:43;27.00;52.80
8792;DHT22;4432;50.890;4.744;2022-08-01T14:50:11;26.80;52.60
8792;DHT22;4432;50.890;4.744;2022-08-01T14:52:38;27.00;53.90
8792;DHT22;4432;50.890;4.744;2022-08-01T14:55:06;27.00;53.90
8792;DHT22;4432;50.890;4.744;2022-08-01T14:57:32;27.00;54.60
8792;DHT22;4432;50.890;4.744;2022-08-01T14:59:57;27.00;52.90
8792;DHT22;4432;50.890;4.744;2022-08-01T15:02:23;26.90;53.10
8792;DHT22;4432;50.890;4.744;2022-08-01T15:04:49;27.00;54.20
8792;DHT22;4432;50.890;4.744;2022-08-01T15:07:16;27.00;54.60
8792;DHT22;4432;50.890;4.744;2022-08-01T15:09:42;27.10;54.20
8792;DHT22;4432;50.890;4.744;2022-08-01T15:12:09;27.10;54.20
8792;DHT22;4432;50.890;4.744;2022-08-01T15:14:35;27.10;54.30
8792;DHT22;4432;50.890;4.744;2022-08-01T15:17:14;26.90;55.00
8792;DHT22;4432;50.890;4.744;2022-08-01T15:19:40;26.70;54.00
8792;DHT22;4432;50.890;4.744;2022-08-01T15:22:05;26.60;54.60
8792;DHT22;4432;50.890;4.744;2022-08-01T15:24:31;26.60;53.70
8792;DHT22;4432;50.890;4.744;2022-08-01T15:26:57;26.60;53.50
8792;DHT22;4432;50.890;4.744;2022-08-01T15:29:23;26.60;54.40
8792;DHT22;4432;50.890;4.744;2022-08-01T15:31:49;26.70;53.50
8792;DHT22;4432;50.890;4.744;2022-08-01T15:34:15;26.60;52.70
8792;DHT22;4432;50.890;4.744;2022-08-01T15:36:41;26.60;55.20
8792;DHT22;4432;50.890;4.744;2022-08-01T15:39:09;26.80;54.50
8792;DHT22;4432;50.890;4.744;2022-08-01T15:41:34;26.90;53.10
8792;DHT22;4432;50.890;4.744;2022-08-01T15:44:00;26.80;52.20
8792;DHT22;4432;50.890;4.744;2022-08-01T15:46:26;26.80;52.90
8792;DHT22;4432;50.890;4.744;2022-08-01T15:48:52;26.80;52.00
8792;DHT22;4432;50.890;4.744;2022-08-01T15:51:17;26.80;51.10
8792;DHT22;4432;50.890;4.744;2022-08-01T15:53:43;26.80;51.10
8792;DHT22;4432;50.890;4.744;2022-08-01T15:56:10;26.70;50.50
8792;DHT22;4432;50.890;4.744;2022-08-01T15:58:36;26.70;50.30
8792;DHT22;4432;50.890;4.744;2022-08-01T16:01:02;26.70;50.50
8792;DHT22;4432;50.890;4.744;2022-08-01T16:03:28;26.80;51.50
8792;DHT22;4432;50.890;4.744;2022-08-01T16:05:54;26.90;50.70
8792;DHT22;4432;50.890;4.744;2022-08-01T16:08:19;26.90;51.10
8792;DHT22;4432;50.890;4.744;2022-08-01T16:10:45;26.90;49.90
8792;DHT22;4432;50.890;4.744;2022-08-01T16:13:11;26.70;51.00
8792;DHT22;4432;50.890;4.744;2022-08-01T16:15:37;26.50;51.20
8792;DHT22;4432;50.890;4.744;2022-08-01T16:18:08;26.40;51.90
8792;DHT22;4432;50.890;4.744;2022-08-01T16:20:34;26.40;52.40
8792;DHT22;4432;50.890;4.744;2022-08-01T16:23:00;26.40;52.80
8792;DHT22;4432;50.890;4.744;2022-08-01T16:25:26;26.40;51.30
8792;DHT22;4432;50.890;4.744;2022-08-01T16:27:52;26.30;52.40
8792;DHT22;4432;50.890;4.744;2022-08-01T16:30:17;26.30;52.00
8792;DHT22;4432;50.890;4.744;2022-08-01T16:32:43;26.20;51.80
8792;DHT22;4432;50.890;4.744;2022-08-01T16:35:09;26.20;52.40
8792;DHT22;4432;50.890;4.744;2022-08-01T16:37:35;26.30;53.20
8792;DHT22;4432;50.890;4.744;2022-08-01T16:40:00;26.20;52.20
8792;DHT22;4432;50.890;4.744;2022-08-01T16:42:26;26.20;51.20
8792;DHT22;4432;50.890;4.744;2022-08-01T16:44:52;26.20;51.50
8792;DHT22;4432;50.890;4.744;2022-08-01T16:47:18;26.20;51.40